Погода Малое Пивкинона 2 недели

Смоленская область, Россия

24 мая-05 июня
  • 24мая
    Сегодня
    +6°
    +21°
    Ясно и безоблачно
    ВремяПогодаТемператураВлажностьДавлениеВетер, м/сВероятность осадков
    00:00Ясно и безоблачно+12°C51 %754 мм3.3 м/с2 %
    03:00Ясно и безоблачно+10°C63 %755 мм2.8 м/с2 %
    06:00Ясно и безоблачно+10°C63 %756 мм3.0 м/с2 %
    09:00Практически безоблачно+15°C44 %757 мм3.6 м/с2 %
    12:00Ясно и безоблачно+19°C29 %757 мм4.7 м/с2 %
    15:00Ясно и безоблачно+21°C25 %756 мм4.3 м/с2 %
    18:00Ясно и безоблачно+20°C30 %755 мм3.5 м/с2 %
    21:00Ясно и безоблачно+14°C49 %756 мм2.4 м/с2 %
  • 25мая
    Суббота
    +8°
    +23°
    Небольшая облачность
    ВремяПогодаТемператураВлажностьДавлениеВетер, м/сВероятность осадков
    00:00Ясно и безоблачно+10°C58 %756 мм2.5 м/с2 %
    03:00Ясно и безоблачно+8°C70 %756 мм2.1 м/с2 %
    06:00Ясно и безоблачно+9°C70 %756 мм2.1 м/с2 %
    09:00Ясно и безоблачно+16°C54 %755 мм1.8 м/с2 %
    12:00Ясно и безоблачно+21°C40 %755 мм2.0 м/с2 %
    15:00Небольшая облачность+23°C35 %754 мм2.5 м/с2 %
    18:00Ясно и безоблачно+23°C37 %753 мм2.0 м/с2 %
    21:00Ясно и безоблачно+16°C63 %752 мм2.5 м/с2 %
  • 26мая
    Воскресенье
    +12°
    +25°
    Небольшая облачность
    ВремяПогодаТемператураВлажностьДавлениеВетер, м/сВероятность осадков
    00:00Практически безоблачно+12°C71 %752 мм2.2 м/с2 %
    03:00Ясно и безоблачно+10°C84 %752 мм1.8 м/с2 %
    06:00Ясно и безоблачно+11°C80 %752 мм1.9 м/с2 %
    09:00Ясно и безоблачно+19°C61 %752 мм1.0 м/с2 %
    12:00Ясно и безоблачно+23°C39 %752 мм2.1 м/с2 %
    15:00Небольшая облачность+25°C34 %751 мм2.2 м/с3 %
    18:00Практически безоблачно+25°C37 %751 мм2.5 м/с9 %
    21:00Ясно и безоблачно+19°C57 %751 мм3.5 м/с3 %
  • 27мая
    Понедельник
    +11°
    +25°
    Практически безоблачно
    ВремяПогодаТемператураВлажностьДавлениеВетер, м/сВероятность осадков
    00:00Ясно и безоблачно+15°C79 %752 мм2.5 м/с5 %
    03:00Практически безоблачно+13°C93 %752 мм2.7 м/с2 %
    06:00Ясно и безоблачно+14°C91 %753 мм2.6 м/с2 %
    09:00Практически безоблачно+19°C71 %754 мм4.0 м/с2 %
    12:00Ясно и безоблачно+22°C53 %754 мм4.1 м/с10 %
    15:00Практически безоблачно+23°C42 %753 мм3.9 м/с12 %
    18:00Ясно и безоблачно+22°C39 %753 мм3.7 м/с25 %
    21:00Ясно и безоблачно+18°C53 %753 мм2.7 м/с7 %
Мы используем cookies
Соглашаюсь